createdAt,value
2018-12-04T00:00:19.710Z,13.00
2018-12-04T00:02:47.717Z,12.63
2018-12-04T00:05:15.690Z,14.63
2018-12-04T00:07:44.548Z,12.00
2018-12-04T00:10:12.496Z,15.20
2018-12-04T00:12:40.460Z,13.57
2018-12-04T00:15:08.428Z,14.97
2018-12-04T00:17:36.381Z,14.97
2018-12-04T00:20:04.936Z,12.63
2018-12-04T00:22:32.911Z,14.60
2018-12-04T00:25:00.885Z,13.63
2018-12-04T00:27:28.837Z,12.37
2018-12-04T00:29:56.808Z,15.07
2018-12-04T00:32:24.774Z,15.80
2018-12-04T00:34:52.744Z,13.43
2018-12-04T00:37:20.714Z,11.23
2018-12-04T00:39:48.678Z,12.73
2018-12-04T00:42:17.669Z,11.60
2018-12-04T00:44:46.523Z,13.50
2018-12-04T00:47:14.500Z,13.80
2018-12-04T00:49:42.585Z,12.80
2018-12-04T00:52:10.540Z,14.70
2018-12-04T00:54:38.499Z,13.20
2018-12-04T00:57:06.465Z,11.00
2018-12-04T00:59:34.440Z,17.27
2018-12-04T01:02:02.477Z,12.30
2018-12-04T01:04:30.521Z,13.40
2018-12-04T01:06:58.537Z,14.03
2018-12-04T01:09:26.559Z,12.80
2018-12-04T01:11:54.525Z,12.87
2018-12-04T01:14:22.501Z,13.93
2018-12-04T01:16:50.448Z,14.57
2018-12-04T01:19:18.856Z,13.13
2018-12-04T01:21:47.185Z,15.30
2018-12-04T01:24:15.161Z,13.87
2018-12-04T01:26:43.096Z,18.47
2018-12-04T01:29:11.102Z,16.17
2018-12-04T01:31:39.102Z,13.83
2018-12-04T01:34:07.068Z,17.13
2018-12-04T01:36:35.033Z,17.93
2018-12-04T01:39:04.685Z,13.63
2018-12-04T01:41:32.640Z,17.80
2018-12-04T01:44:00.623Z,16.83
2018-12-04T01:46:28.585Z,18.03
2018-12-04T01:48:56.556Z,15.60
2018-12-04T01:51:24.512Z,17.03
2018-12-04T01:53:52.478Z,16.13
2018-12-04T01:56:21.412Z,18.37
2018-12-04T01:58:50.272Z,19.60
2018-12-04T02:01:18.264Z,14.70
2018-12-04T02:03:47.073Z,17.60
2018-12-04T02:06:15.237Z,14.70
2018-12-04T02:08:43.297Z,17.63
2018-12-04T02:11:11.249Z,15.50
2018-12-04T02:13:39.225Z,14.10
2018-12-04T02:16:07.187Z,15.70
2018-12-04T02:18:35.149Z,18.63
2018-12-04T02:21:03.120Z,18.20
2018-12-04T02:23:31.141Z,16.77
2018-12-04T02:25:59.156Z,16.63
2018-12-04T02:28:32.528Z,13.13
2018-12-04T02:31:00.497Z,13.37
2018-12-04T02:33:28.466Z,13.10
2018-12-04T02:35:56.428Z,14.60
2018-12-04T02:38:24.472Z,14.63
2018-12-04T02:40:52.597Z,15.97
2018-12-04T02:43:20.565Z,16.87
2018-12-04T02:45:48.504Z,17.77
2018-12-04T02:48:16.619Z,14.70
2018-12-04T02:50:44.591Z,13.83
2018-12-04T02:53:12.564Z,15.53
2018-12-04T02:55:40.520Z,13.53
2018-12-04T02:58:08.481Z,13.20
2018-12-04T03:00:36.422Z,12.07
2018-12-04T03:03:04.416Z,15.40
2018-12-04T03:05:32.376Z,15.50
2018-12-04T03:08:00.344Z,16.80
2018-12-04T03:10:28.288Z,14.57
2018-12-04T03:12:56.510Z,19.27
2018-12-04T03:15:25.105Z,19.73
2018-12-04T03:17:53.073Z,21.97
2018-12-04T03:20:21.026Z,19.07
2018-12-04T03:22:48.997Z,15.27
2018-12-04T03:25:17.605Z,20.57
2018-12-04T03:27:45.567Z,18.03
2018-12-04T03:30:13.632Z,14.83
2018-12-04T03:32:41.598Z,18.03
2018-12-04T03:35:09.573Z,13.80
2018-12-04T03:37:37.562Z,15.13
2018-12-04T03:40:07.324Z,18.90
2018-12-04T03:42:35.292Z,14.53
2018-12-04T03:45:03.646Z,21.83
2018-12-04T03:47:31.632Z,19.43
2018-12-04T03:49:59.640Z,14.77
2018-12-04T03:52:27.994Z,17.13
2018-12-04T03:54:57.030Z,19.37
2018-12-04T03:57:24.992Z,22.90
2018-12-04T03:59:53.064Z,20.33
2018-12-04T04:02:21.050Z,15.27
2018-12-04T04:04:49.017Z,17.77
2018-12-04T04:07:16.988Z,18.93
2018-12-04T04:09:44.956Z,16.83
2018-12-04T04:12:12.898Z,16.70
2018-12-04T04:14:40.850Z,17.10
2018-12-04T04:17:08.820Z,16.77
2018-12-04T04:19:36.765Z,17.50
2018-12-04T04:22:04.723Z,18.63
2018-12-04T04:24:32.665Z,18.30
2018-12-04T04:27:00.645Z,17.47
2018-12-04T04:29:29.293Z,13.60
2018-12-04T04:31:57.260Z,17.80
2018-12-04T04:34:25.221Z,17.80
2018-12-04T04:36:53.184Z,15.87
2018-12-04T04:39:21.161Z,12.93
2018-12-04T04:41:49.129Z,19.33
2018-12-04T04:44:17.145Z,20.03
2018-12-04T04:46:45.216Z,19.77
2018-12-04T04:49:13.232Z,17.27
2018-12-04T04:51:41.211Z,16.07
2018-12-04T04:54:09.390Z,18.60
2018-12-04T04:56:37.386Z,19.57
2018-12-04T04:59:05.356Z,19.60
2018-12-04T05:01:33.449Z,15.07
2018-12-04T05:04:01.991Z,19.07
2018-12-04T05:06:30.621Z,17.65
2018-12-04T05:08:58.794Z,16.20
2018-12-04T05:11:26.924Z,16.77
2018-12-04T05:13:54.901Z,14.53
2018-12-04T05:16:22.940Z,12.07
2018-12-04T05:18:50.990Z,21.30
2018-12-04T05:21:18.937Z,14.23
2018-12-04T05:23:46.913Z,14.47
2018-12-04T05:26:14.848Z,11.63
2018-12-04T05:28:42.802Z,20.10
2018-12-04T05:31:10.760Z,11.90
2018-12-04T05:33:38.718Z,16.30
2018-12-04T05:36:06.668Z,13.63
2018-12-04T05:38:34.609Z,14.57
2018-12-04T05:41:03.005Z,10.97
2018-12-04T05:43:30.959Z,13.53
2018-12-04T05:45:58.916Z,13.07
2018-12-04T05:48:26.915Z,13.63
2018-12-04T05:50:54.860Z,13.93
2018-12-04T05:53:31.045Z,13.40
2018-12-04T05:55:59.019Z,15.07
2018-12-04T05:58:26.996Z,11.63
2018-12-04T06:00:54.936Z,12.73
2018-12-04T06:03:22.888Z,11.43
2018-12-04T06:05:50.862Z,9.43
2018-12-04T06:08:18.936Z,12.27
2018-12-04T06:10:47.048Z,13.40
2018-12-04T06:13:15.018Z,14.30
2018-12-04T06:15:42.982Z,9.53
2018-12-04T06:18:11.669Z,13.13
2018-12-04T06:20:39.802Z,10.43
2018-12-04T06:23:07.744Z,13.80
2018-12-04T06:28:12.755Z,8.40
2018-12-04T06:30:40.707Z,15.80
2018-12-04T06:33:08.657Z,11.87
2018-12-04T06:35:36.788Z,13.10
2018-12-04T06:38:04.943Z,11.87
2018-12-04T06:40:32.977Z,11.77
2018-12-04T06:43:01.071Z,13.20
2018-12-04T06:45:29.081Z,11.17
2018-12-04T06:47:57.049Z,16.10
2018-12-04T06:50:25.035Z,12.03
2018-12-04T06:52:52.997Z,14.93
2018-12-04T06:55:20.956Z,18.83
2018-12-04T06:57:56.033Z,9.57
2018-12-04T07:00:24.304Z,14.97
2018-12-04T07:02:52.472Z,12.50
2018-12-04T07:05:20.441Z,16.10
2018-12-04T07:07:48.452Z,14.27
2018-12-04T07:10:16.427Z,12.10
2018-12-04T07:12:44.408Z,11.20
2018-12-04T07:15:12.360Z,11.20
2018-12-04T07:17:40.465Z,13.90
2018-12-04T07:20:09.161Z,10.70
2018-12-04T07:22:37.113Z,13.10
2018-12-04T07:25:05.752Z,13.37
2018-12-04T07:27:33.776Z,16.03
2018-12-04T07:30:01.751Z,12.63
2018-12-04T07:33:15.623Z,17.00
2018-12-04T07:35:43.577Z,13.63
2018-12-04T07:38:11.686Z,13.70
2018-12-04T07:40:39.762Z,16.20
2018-12-04T07:43:07.729Z,11.00
2018-12-04T07:45:35.684Z,15.67
2018-12-04T07:48:03.773Z,22.33
2018-12-04T07:50:31.758Z,15.30
2018-12-04T07:52:59.719Z,12.90
2018-12-04T07:55:27.739Z,15.10
2018-12-04T07:57:55.688Z,16.07
2018-12-04T08:00:23.640Z,16.80
2018-12-04T08:02:51.599Z,14.10
2018-12-04T08:05:19.930Z,17.20
2018-12-04T08:07:47.878Z,17.97
2018-12-04T08:10:15.830Z,19.17
2018-12-04T08:12:43.800Z,23.93
2018-12-04T08:15:12.868Z,17.47
2018-12-04T08:17:41.369Z,25.87
2018-12-04T08:20:09.409Z,25.37
2018-12-04T08:22:37.385Z,40.03
2018-12-04T08:25:05.549Z,26.43
2018-12-04T08:27:36.013Z,27.13
2018-12-04T08:30:05.482Z,25.20
2018-12-04T08:32:33.430Z,32.60
2018-12-04T08:35:01.396Z,26.50
2018-12-04T08:37:29.363Z,24.03
2018-12-04T08:39:57.385Z,26.73
2018-12-04T08:42:25.361Z,27.13
2018-12-04T08:44:53.371Z,20.17
2018-12-04T08:47:21.335Z,22.27
2018-12-04T08:49:49.304Z,19.50
2018-12-04T08:52:17.278Z,19.07
2018-12-04T08:54:45.827Z,14.37
2018-12-04T08:57:14.684Z,16.00
2018-12-04T08:59:42.634Z,11.90
2018-12-04T09:02:10.579Z,10.07
2018-12-04T09:04:38.527Z,15.07
2018-12-04T09:07:06.634Z,12.43
2018-12-04T09:09:34.690Z,17.10
2018-12-04T09:12:02.648Z,13.27
2018-12-04T09:14:30.621Z,10.77
2018-12-04T09:16:58.601Z,11.43
2018-12-04T09:22:25.668Z,14.47
2018-12-04T09:24:53.765Z,11.50
2018-12-04T09:27:22.181Z,8.07
2018-12-04T09:29:50.327Z,11.23
2018-12-04T09:32:18.497Z,12.20
2018-12-04T09:37:29.804Z,12.70
2018-12-04T09:39:57.793Z,10.00
2018-12-04T09:42:25.789Z,8.97
2018-12-04T09:44:53.752Z,10.10
2018-12-04T09:47:21.732Z,7.37
2018-12-04T09:49:49.756Z,11.10
2018-12-04T09:52:18.170Z,9.10
2018-12-04T09:54:46.806Z,9.63
2018-12-04T09:57:15.620Z,14.23
2018-12-04T09:59:43.662Z,10.93
2018-12-04T10:02:11.611Z,15.27
2018-12-04T10:04:40.641Z,12.10
2018-12-04T10:07:08.778Z,14.20
2018-12-04T10:09:36.756Z,7.20
2018-12-04T10:12:04.740Z,13.13
2018-12-04T10:14:32.755Z,12.20
2018-12-04T10:17:00.755Z,6.33
2018-12-04T10:19:28.839Z,7.20
2018-12-04T10:21:56.855Z,8.50
2018-12-04T10:24:24.872Z,8.83
2018-12-04T10:26:57.796Z,13.53
2018-12-04T10:29:26.176Z,10.17
2018-12-04T10:31:56.174Z,10.60
2018-12-04T10:34:24.177Z,13.37
2018-12-04T10:36:52.129Z,13.33
2018-12-04T10:39:20.115Z,8.07
2018-12-04T10:41:48.107Z,8.90
2018-12-04T10:44:17.352Z,12.70
2018-12-04T10:46:47.144Z,11.63
2018-12-04T10:49:15.696Z,8.13
2018-12-04T10:51:43.651Z,6.93
2018-12-04T10:54:12.622Z,9.57
2018-12-04T10:56:40.577Z,7.80
2018-12-04T10:59:08.554Z,7.60
2018-12-04T11:02:43.183Z,9.30
2018-12-04T11:05:11.169Z,14.17
2018-12-04T11:07:39.151Z,7.83
2018-12-04T11:10:07.116Z,9.17
2018-12-04T11:12:35.076Z,13.90
2018-12-04T11:15:03.081Z,5.20
2018-12-04T11:17:31.054Z,9.83
2018-12-04T11:19:59.017Z,7.43
2018-12-04T11:22:26.985Z,9.43
2018-12-04T11:24:55.033Z,14.97
2018-12-04T11:27:23.002Z,12.23
2018-12-04T11:29:51.004Z,12.97
2018-12-04T11:32:19.491Z,11.77
2018-12-04T11:34:47.526Z,10.50
2018-12-04T11:37:15.806Z,13.00
2018-12-04T11:39:45.758Z,8.37
2018-12-04T11:42:13.790Z,8.50
2018-12-04T11:44:41.886Z,10.83
2018-12-04T11:47:09.820Z,13.80
2018-12-04T11:49:37.818Z,11.43
2018-12-04T11:52:05.784Z,10.83
2018-12-04T11:54:34.488Z,9.43
2018-12-04T11:57:02.657Z,8.93
2018-12-04T11:59:30.674Z,10.83
2018-12-04T12:01:58.814Z,6.53
2018-12-04T12:04:26.882Z,10.10
2018-12-04T12:06:54.864Z,7.23
2018-12-04T12:09:22.831Z,11.23
2018-12-04T12:11:50.800Z,10.53
2018-12-04T12:14:18.788Z,9.97
2018-12-04T12:16:47.417Z,8.97
2018-12-04T12:19:15.409Z,8.03
2018-12-04T12:21:43.997Z,14.83
2018-12-04T12:24:11.962Z,9.23
2018-12-04T12:26:39.916Z,8.80
2018-12-04T12:29:07.861Z,10.63
2018-12-04T12:31:35.819Z,6.47
2018-12-04T12:34:03.787Z,9.80
2018-12-04T12:36:31.777Z,8.63
2018-12-04T12:38:59.744Z,10.07
2018-12-04T12:41:27.685Z,3.03
2018-12-04T12:46:23.585Z,9.63
2018-12-04T12:48:51.568Z,17.17
2018-12-04T12:51:20.149Z,4.60
2018-12-04T12:53:48.886Z,8.37
2018-12-04T12:56:16.845Z,6.37
2018-12-04T12:58:44.845Z,11.00
2018-12-04T13:01:12.895Z,8.37
2018-12-04T13:03:40.847Z,9.00
2018-12-04T13:06:08.836Z,7.70
2018-12-04T13:08:37.825Z,4.43
2018-12-04T13:11:05.822Z,5.63
2018-12-04T13:13:36.835Z,5.83
2018-12-04T13:16:03.779Z,6.63
2018-12-04T13:18:31.768Z,12.90
2018-12-04T13:20:59.744Z,8.00
2018-12-04T13:23:27.692Z,5.50
2018-12-04T13:25:55.653Z,6.93
2018-12-04T13:28:23.619Z,4.43
2018-12-04T13:30:51.958Z,6.53
2018-12-04T13:33:20.108Z,8.97
2018-12-04T13:35:48.132Z,5.87
2018-12-04T13:38:17.716Z,4.33
2018-12-04T13:40:45.736Z,5.50
2018-12-04T13:43:13.773Z,3.87
2018-12-04T13:45:41.806Z,6.57
2018-12-04T13:48:09.785Z,7.23
2018-12-04T13:50:37.776Z,5.57
2018-12-04T13:53:05.743Z,11.90
2018-12-04T13:55:33.911Z,9.60
2018-12-04T13:58:02.054Z,7.90
2018-12-04T14:00:30.165Z,5.87
2018-12-04T14:02:58.215Z,11.70
2018-12-04T14:05:26.275Z,8.67
2018-12-04T14:07:54.672Z,5.50
2018-12-04T14:10:22.918Z,13.83
2018-12-04T14:12:50.983Z,18.00
2018-12-04T14:15:19.641Z,9.33
2018-12-04T14:17:47.693Z,8.30
2018-12-04T14:20:15.842Z,9.23
2018-12-04T14:22:43.894Z,9.20
2018-12-04T14:25:12.044Z,7.80
2018-12-04T14:27:40.031Z,7.43
2018-12-04T14:30:10.645Z,8.10
2018-12-04T14:32:38.734Z,11.17
2018-12-04T14:35:07.021Z,6.50
2018-12-04T14:37:34.988Z,5.63
2018-12-04T14:40:03.169Z,3.37
2018-12-04T14:42:31.200Z,4.97
2018-12-04T14:44:59.380Z,5.40
2018-12-04T14:47:28.071Z,6.07
2018-12-04T14:49:57.140Z,8.90
2018-12-04T14:52:25.947Z,5.73
2018-12-04T14:54:53.924Z,7.27
2018-12-04T14:57:21.907Z,7.83
2018-12-04T14:59:49.965Z,8.57
2018-12-04T15:02:17.976Z,7.20
2018-12-04T15:04:46.855Z,10.90
2018-12-04T15:07:15.084Z,4.03
2018-12-04T15:09:43.146Z,5.00
2018-12-04T15:12:11.234Z,4.27
2018-12-04T15:14:39.206Z,6.97
2018-12-04T15:17:07.293Z,7.53
2018-12-04T15:19:35.283Z,9.77
2018-12-04T15:22:03.331Z,10.50
2018-12-04T15:24:31.363Z,5.60
2018-12-04T15:27:00.499Z,11.10
2018-12-04T15:29:29.033Z,7.90
2018-12-04T15:31:57.620Z,9.20
2018-12-04T15:34:25.716Z,13.17
2018-12-04T15:36:56.636Z,6.87
2018-12-04T15:39:23.852Z,11.47
2018-12-04T15:41:52.005Z,13.57
2018-12-04T15:44:20.182Z,11.23
2018-12-04T15:46:48.276Z,10.73
2018-12-04T15:49:16.395Z,7.00
2018-12-04T15:51:44.366Z,7.97
2018-12-04T15:54:12.380Z,11.73
2018-12-04T15:56:40.427Z,14.10
2018-12-04T15:59:08.394Z,16.40
2018-12-04T16:01:36.429Z,12.90
2018-12-04T16:04:04.416Z,8.10
2018-12-04T16:06:32.484Z,7.67
2018-12-04T16:09:00.852Z,9.03
2018-12-04T16:11:29.226Z,6.83
2018-12-04T16:13:58.214Z,15.37
2018-12-04T16:16:26.346Z,13.57
2018-12-04T16:18:54.583Z,18.37
2018-12-04T16:21:22.581Z,17.83
2018-12-04T16:23:50.675Z,13.90
2018-12-04T16:26:18.699Z,21.27
2018-12-04T16:28:47.188Z,24.87
2018-12-04T16:31:15.776Z,26.27
2018-12-04T16:33:44.385Z,17.87
2018-12-04T16:36:12.753Z,22.27
2018-12-04T16:38:41.334Z,37.03
2018-12-04T16:41:10.141Z,35.73
2018-12-04T16:43:38.748Z,50.57
2018-12-04T16:46:07.017Z,45.43
2018-12-04T16:48:35.539Z,47.93
2018-12-04T16:51:03.809Z,34.17
2018-12-04T16:53:32.992Z,37.80
2018-12-04T16:56:01.675Z,30.97
2018-12-04T16:58:29.779Z,33.33
2018-12-04T17:00:57.861Z,23.27
2018-12-04T17:03:26.163Z,27.60
2018-12-04T17:05:54.186Z,24.70
2018-12-04T17:08:22.155Z,30.87
2018-12-04T17:10:50.271Z,24.67
2018-12-04T17:13:18.365Z,25.27
2018-12-04T17:15:46.448Z,22.10
2018-12-04T17:18:14.500Z,33.27
2018-12-04T17:20:42.599Z,24.27
2018-12-04T17:23:10.688Z,28.57
2018-12-04T17:25:38.687Z,24.30
2018-12-04T17:28:06.835Z,25.10
2018-12-04T17:30:35.733Z,25.27
2018-12-04T17:33:04.896Z,27.27
2018-12-04T17:35:33.914Z,26.90
2018-12-04T17:38:01.988Z,27.83
2018-12-04T17:40:30.151Z,19.50
2018-12-04T17:42:58.187Z,28.03
2018-12-04T17:45:26.321Z,22.23
2018-12-04T17:47:54.329Z,29.00
2018-12-04T17:50:22.279Z,30.83
2018-12-04T17:52:50.248Z,31.20
2018-12-04T17:55:18.257Z,36.57
2018-12-04T17:57:46.245Z,38.63
2018-12-04T18:00:15.374Z,41.00
2018-12-04T18:02:43.361Z,40.97
2018-12-04T18:05:11.415Z,41.97
2018-12-04T18:07:39.368Z,29.67
2018-12-04T18:10:08.144Z,33.53
2018-12-04T18:12:36.594Z,23.73
2018-12-04T18:15:05.722Z,23.23
2018-12-04T18:17:33.751Z,32.77
2018-12-04T18:20:01.759Z,33.13
2018-12-04T18:22:29.769Z,32.27
2018-12-04T18:24:57.830Z,41.77
2018-12-04T18:29:58.908Z,23.73
2018-12-04T18:32:26.893Z,35.47
2018-12-04T18:34:54.928Z,26.63
2018-12-04T18:37:23.085Z,35.67
2018-12-04T18:39:51.196Z,43.90
2018-12-04T18:42:19.374Z,34.80
2018-12-04T18:44:47.439Z,35.57
2018-12-04T18:47:15.499Z,36.80
2018-12-04T18:49:43.848Z,29.87
2018-12-04T18:52:11.817Z,38.63
2018-12-04T18:54:39.815Z,39.80
2018-12-04T18:57:08.702Z,28.97
2018-12-04T18:59:36.711Z,68.67
2018-12-04T19:02:04.834Z,68.03
2018-12-04T19:04:32.823Z,37.07
2018-12-04T19:07:00.821Z,75.67
2018-12-04T19:09:28.787Z,30.83
2018-12-04T19:11:56.816Z,35.07
2018-12-04T19:14:24.819Z,42.47
2018-12-04T19:16:54.424Z,35.50
2018-12-04T19:19:22.647Z,41.47
2018-12-04T19:21:50.614Z,81.03
2018-12-04T19:24:18.643Z,43.70
2018-12-04T19:26:46.617Z,43.23
2018-12-04T19:29:14.571Z,31.13
2018-12-04T19:31:42.686Z,30.60
2018-12-04T19:34:10.747Z,23.57
2018-12-04T19:36:38.763Z,26.73
2018-12-04T19:39:08.288Z,27.93
2018-12-04T19:41:36.277Z,27.87
2018-12-04T19:44:04.328Z,27.33
2018-12-04T19:46:32.344Z,317.73
2018-12-04T19:49:00.292Z,356.83
2018-12-04T19:51:28.312Z,274.13
2018-12-04T19:53:56.405Z,129.77
2018-12-04T19:56:24.505Z,163.43
2018-12-04T19:58:52.495Z,289.27
2018-12-04T20:01:20.466Z,106.10
2018-12-04T20:03:48.567Z,76.50
2018-12-04T20:06:16.609Z,74.80
2018-12-04T20:08:50.235Z,56.30
2018-12-04T20:11:18.339Z,27.17
2018-12-04T20:13:46.661Z,57.93
2018-12-04T20:16:15.541Z,107.87
2018-12-04T20:18:44.965Z,52.67
2018-12-04T20:21:14.870Z,29.67
2018-12-04T20:23:43.240Z,29.37
2018-12-04T20:26:12.697Z,35.43
2018-12-04T20:28:40.728Z,32.37
2018-12-04T20:31:08.843Z,34.63
2018-12-04T20:33:39.348Z,42.70
2018-12-04T20:36:11.105Z,32.67
2018-12-04T20:38:47.338Z,32.00
2018-12-04T20:41:18.904Z,28.43
2018-12-04T20:43:49.771Z,32.67
2018-12-04T20:46:20.191Z,62.93
2018-12-04T20:48:49.727Z,78.42
2018-12-04T20:51:18.730Z,47.40
2018-12-04T20:53:49.429Z,32.47
2018-12-04T20:56:20.668Z,36.33
2018-12-04T20:58:52.808Z,25.77
2018-12-04T21:01:22.857Z,28.27
2018-12-04T21:03:51.386Z,33.63
2018-12-04T21:06:19.597Z,42.70
2018-12-04T21:08:48.042Z,45.73
2018-12-04T21:11:16.328Z,27.87
2018-12-04T21:13:44.316Z,26.83
2018-12-04T21:18:49.311Z,28.17
2018-12-04T21:21:17.263Z,27.17
2018-12-04T21:23:45.951Z,32.10
2018-12-04T21:26:14.973Z,32.03
2018-12-04T21:28:48.943Z,29.23
2018-12-04T21:32:23.091Z,34.23
2018-12-04T21:34:56.789Z,31.40
2018-12-04T21:37:30.300Z,37.10
2018-12-04T21:40:04.455Z,35.13
2018-12-04T21:42:38.031Z,40.87
2018-12-04T21:45:12.076Z,25.77
2018-12-04T21:47:46.589Z,29.57
2018-12-04T21:50:14.593Z,25.93
2018-12-04T21:52:42.868Z,22.00
2018-12-04T21:55:11.077Z,21.43
2018-12-04T21:57:39.172Z,34.57
2018-12-04T22:00:07.300Z,27.37
2018-12-04T22:02:35.436Z,22.40
2018-12-04T22:05:03.424Z,22.40
2018-12-04T22:07:31.474Z,25.20
2018-12-04T22:09:59.440Z,27.03
2018-12-04T22:12:27.365Z,22.53
2018-12-04T22:14:55.323Z,28.50
2018-12-04T22:17:23.289Z,21.23
2018-12-04T22:19:51.248Z,24.87
2018-12-04T22:22:19.215Z,20.67
2018-12-04T22:24:48.133Z,21.17
2018-12-04T22:27:16.101Z,21.07
2018-12-04T22:29:44.254Z,22.83
2018-12-04T22:32:12.327Z,22.80
2018-12-04T22:34:40.280Z,25.73
2018-12-04T22:37:08.256Z,24.23
2018-12-04T22:39:36.308Z,25.00
2018-12-04T22:42:04.349Z,20.73
2018-12-04T22:44:32.330Z,21.90
2018-12-04T22:47:00.260Z,20.03
2018-12-04T22:49:28.277Z,18.73
2018-12-04T22:51:56.213Z,20.90
2018-12-04T22:54:24.182Z,29.20
2018-12-04T22:56:52.108Z,24.00
2018-12-04T22:59:20.117Z,26.90
2018-12-04T23:01:48.094Z,31.97
2018-12-04T23:04:16.081Z,26.97
2018-12-04T23:06:44.292Z,27.73
2018-12-04T23:09:12.542Z,25.97
2018-12-04T23:11:40.497Z,33.40
2018-12-04T23:14:08.475Z,27.47
2018-12-04T23:16:36.507Z,26.73
2018-12-04T23:19:04.522Z,24.13
2018-12-04T23:21:32.535Z,25.53
2018-12-04T23:24:00.590Z,26.50
2018-12-04T23:26:28.664Z,27.33
2018-12-04T23:28:56.647Z,24.93
2018-12-04T23:31:24.595Z,28.03
2018-12-04T23:33:52.545Z,24.40
2018-12-04T23:36:20.501Z,22.90
2018-12-04T23:38:48.461Z,24.07
2018-12-04T23:41:16.410Z,29.27
2018-12-04T23:43:44.944Z,25.00
2018-12-04T23:46:13.538Z,28.97
2018-12-04T23:48:41.646Z,30.00
2018-12-04T23:51:09.596Z,27.53
2018-12-04T23:53:37.572Z,41.30
2018-12-04T23:56:05.535Z,51.43
2018-12-04T23:58:33.521Z,44.13
